createdAt,value
2022-08-21T00:01:29.324Z,6.45
2022-08-21T00:04:31.753Z,5.95
2022-08-21T00:07:33.982Z,6.97
2022-08-21T00:10:35.149Z,7.90
2022-08-21T00:13:37.720Z,7.40
2022-08-21T00:16:39.746Z,7.75
2022-08-21T00:19:41.235Z,7.10
2022-08-21T00:22:43.485Z,8.85
2022-08-21T00:25:45.727Z,10.30
2022-08-21T00:28:50.117Z,9.43
2022-08-21T00:31:51.267Z,9.60
2022-08-21T00:34:53.050Z,9.43
2022-08-21T00:37:54.604Z,9.00
2022-08-21T00:41:00.340Z,9.02
2022-08-21T00:44:21.025Z,9.68
2022-08-21T00:47:22.241Z,9.77
2022-08-21T00:50:29.259Z,10.88
2022-08-21T00:53:31.853Z,12.43
2022-08-21T00:56:34.166Z,10.43
2022-08-21T00:59:41.333Z,11.43
2022-08-21T01:05:46.894Z,12.13
2022-08-21T01:08:48.423Z,11.85
2022-08-21T01:11:49.411Z,11.90
2022-08-21T01:14:50.615Z,10.93
2022-08-21T01:17:52.684Z,10.32
2022-08-21T01:21:27.886Z,12.10
2022-08-21T01:24:30.224Z,10.47
2022-08-21T01:27:31.487Z,10.25
2022-08-21T01:30:37.502Z,9.60
2022-08-21T01:33:38.957Z,8.07
2022-08-21T01:36:40.386Z,7.55
2022-08-21T01:39:44.017Z,7.22
2022-08-21T01:42:47.058Z,7.60
2022-08-21T01:45:47.980Z,6.65
2022-08-21T01:48:49.695Z,5.72
2022-08-21T01:51:50.872Z,5.45
2022-08-21T01:54:55.521Z,5.30
2022-08-21T01:57:59.972Z,6.05
2022-08-21T02:01:02.737Z,6.75
2022-08-21T02:04:04.563Z,6.90
2022-08-21T02:07:08.379Z,6.53
2022-08-21T02:10:20.305Z,6.57
2022-08-21T02:13:21.832Z,6.50
2022-08-21T02:16:23.292Z,6.55
2022-08-21T02:19:24.621Z,7.20
2022-08-21T02:22:25.637Z,7.07
2022-08-21T02:25:28.978Z,5.95
2022-08-21T02:28:30.894Z,6.47
2022-08-21T02:31:32.606Z,7.07
2022-08-21T02:34:33.338Z,8.27
2022-08-21T02:37:34.964Z,9.13
2022-08-21T02:40:40.241Z,7.80
2022-08-21T02:43:45.706Z,7.65
2022-08-21T02:46:46.579Z,7.20
2022-08-21T02:49:47.224Z,7.38
2022-08-21T02:52:51.802Z,8.18
2022-08-21T02:56:00.246Z,8.80
2022-08-21T02:59:01.342Z,11.88
2022-08-21T03:02:02.520Z,11.80
2022-08-21T03:05:05.704Z,7.20
2022-08-21T03:08:12.998Z,6.75
2022-08-21T03:11:16.323Z,6.05
2022-08-21T03:14:17.476Z,5.82
2022-08-21T03:17:18.363Z,5.05
2022-08-21T03:20:32.159Z,4.57
2022-08-21T03:23:33.827Z,3.75
2022-08-21T03:26:35.696Z,3.90
2022-08-21T03:29:36.543Z,3.70
2022-08-21T03:32:37.428Z,4.00
2022-08-21T03:35:38.685Z,4.50
2022-08-21T03:38:40.540Z,4.22
2022-08-21T03:41:41.858Z,5.15
2022-08-21T03:44:43.114Z,5.05
2022-08-21T03:48:01.880Z,4.82
2022-08-21T03:51:04.083Z,4.78
2022-08-21T03:54:05.148Z,5.43
2022-08-21T03:57:06.285Z,4.72
2022-08-21T04:00:10.149Z,5.90
2022-08-21T04:03:11.039Z,6.63
2022-08-21T04:06:12.412Z,6.00
2022-08-21T04:09:13.612Z,7.20
2022-08-21T04:12:14.693Z,7.75
2022-08-21T04:15:15.854Z,6.93
2022-08-21T04:18:17.981Z,6.60
2022-08-21T04:21:18.981Z,7.22
2022-08-21T04:24:25.190Z,6.60
2022-08-21T04:27:30.859Z,7.50
2022-08-21T04:30:31.934Z,6.75
2022-08-21T04:33:32.834Z,7.70
2022-08-21T04:36:34.818Z,8.45
2022-08-21T04:39:36.042Z,7.35
2022-08-21T04:42:50.727Z,7.70
2022-08-21T04:45:53.629Z,8.23
2022-08-21T04:48:55.544Z,7.72
2022-08-21T04:51:56.784Z,7.85
2022-08-21T04:54:57.738Z,7.85
2022-08-21T04:57:59.226Z,7.63
2022-08-21T05:01:03.286Z,8.25
2022-08-21T05:04:09.074Z,8.43
2022-08-21T05:07:42.368Z,7.82
2022-08-21T05:10:45.676Z,8.43
2022-08-21T05:13:54.990Z,9.35
2022-08-21T05:16:59.913Z,8.63
2022-08-21T05:20:00.862Z,8.93
2022-08-21T05:23:02.976Z,9.45
2022-08-21T05:26:05.433Z,8.80
2022-08-21T05:29:11.796Z,9.60
2022-08-21T05:32:15.919Z,8.73
2022-08-21T05:35:17.009Z,8.45
2022-08-21T05:38:18.558Z,8.77
2022-08-21T05:41:19.840Z,9.00
2022-08-21T05:44:20.869Z,10.48
2022-08-21T05:47:23.392Z,8.85
2022-08-21T05:50:24.847Z,9.63
2022-08-21T05:53:30.668Z,8.15
2022-08-21T05:56:31.468Z,8.70
2022-08-21T05:59:32.787Z,8.07
2022-08-21T06:02:33.726Z,8.60
2022-08-21T06:05:36.691Z,9.07
2022-08-21T06:08:38.767Z,7.53
2022-08-21T06:11:39.441Z,8.80
2022-08-21T06:14:43.078Z,7.90
2022-08-21T06:17:44.076Z,7.80
2022-08-21T06:20:45.562Z,7.88
2022-08-21T06:23:46.827Z,7.75
2022-08-21T06:26:47.628Z,7.53
2022-08-21T06:29:48.938Z,7.60
2022-08-21T06:32:50.098Z,8.25
2022-08-21T06:35:51.504Z,7.75
2022-08-21T06:38:52.289Z,6.60
2022-08-21T06:41:53.896Z,5.20
2022-08-21T06:45:02.133Z,6.72
2022-08-21T06:48:03.820Z,5.28
2022-08-21T06:51:05.751Z,6.40
2022-08-21T06:54:07.046Z,5.85
2022-08-21T06:57:08.176Z,5.22
2022-08-21T07:00:11.039Z,4.78
2022-08-21T07:03:31.491Z,4.85
2022-08-21T07:06:34.001Z,5.10
2022-08-21T07:09:35.050Z,4.70
2022-08-21T07:12:36.370Z,4.03
2022-08-21T07:15:37.672Z,4.32
2022-08-21T07:18:38.991Z,5.35
2022-08-21T07:21:40.209Z,4.53
2022-08-21T07:24:41.076Z,5.13
2022-08-21T07:27:42.159Z,5.03
2022-08-21T07:30:43.392Z,4.50
2022-08-21T07:33:45.968Z,4.18
2022-08-21T07:36:47.682Z,4.60
2022-08-21T07:39:50.622Z,3.97
2022-08-21T07:42:52.936Z,4.88
2022-08-21T07:45:55.097Z,4.63
2022-08-21T07:48:56.194Z,4.43
2022-08-21T07:51:57.844Z,4.10
2022-08-21T07:55:01.652Z,4.32
2022-08-21T07:58:05.213Z,4.57
2022-08-21T08:01:07.872Z,4.82
2022-08-21T08:04:08.950Z,4.63
2022-08-21T08:07:10.245Z,4.40
2022-08-21T08:10:12.730Z,4.30
2022-08-21T08:13:13.794Z,4.22
2022-08-21T08:16:15.090Z,4.28
2022-08-21T08:19:16.165Z,4.50
2022-08-21T08:22:20.463Z,4.93
2022-08-21T08:25:24.073Z,4.72
2022-08-21T08:28:26.269Z,5.03
2022-08-21T08:31:27.377Z,5.18
2022-08-21T08:34:28.640Z,4.25
2022-08-21T08:37:34.260Z,4.22
2022-08-21T08:40:50.675Z,4.60
2022-08-21T08:44:01.175Z,3.97
2022-08-21T08:47:03.310Z,4.30
2022-08-21T08:50:04.681Z,4.55
2022-08-21T08:53:13.564Z,4.93
2022-08-21T08:56:14.935Z,4.70
2022-08-21T08:59:31.765Z,5.20
2022-08-21T09:02:34.610Z,5.22
2022-08-21T09:06:26.198Z,5.22
2022-08-21T09:09:53.788Z,5.43
2022-08-21T09:13:21.848Z,4.93
2022-08-21T09:16:51.506Z,4.88
2022-08-21T09:20:33.209Z,4.30
2022-08-21T09:23:44.950Z,3.88
2022-08-21T09:27:07.774Z,4.43
2022-08-21T09:30:11.228Z,4.32
2022-08-21T09:33:17.085Z,4.43
2022-08-21T09:36:35.388Z,4.63
2022-08-21T09:39:45.563Z,4.50
2022-08-21T09:43:18.273Z,3.78
2022-08-21T09:46:26.353Z,3.47
2022-08-21T09:49:38.546Z,3.47
2022-08-21T09:52:49.943Z,3.28
2022-08-21T09:56:24.329Z,3.50
2022-08-21T09:59:37.046Z,3.30
2022-08-21T10:02:38.237Z,3.28
2022-08-21T10:05:41.458Z,3.42
2022-08-21T10:08:42.660Z,3.50
2022-08-21T10:11:59.680Z,3.35
2022-08-21T10:15:24.883Z,3.20
2022-08-21T10:19:15.606Z,3.53
2022-08-21T10:23:22.670Z,3.75
2022-08-21T10:26:58.020Z,2.83
2022-08-21T10:30:12.550Z,3.63
2022-08-21T10:34:22.151Z,3.30
2022-08-21T10:37:42.548Z,4.00
2022-08-21T10:41:22.610Z,3.38
2022-08-21T10:44:55.147Z,3.85
2022-08-21T10:48:05.068Z,3.58
2022-08-21T10:51:29.063Z,4.38
2022-08-21T10:55:00.636Z,4.30
2022-08-21T10:58:26.778Z,5.40
2022-08-21T11:01:41.302Z,4.68
2022-08-21T11:04:56.747Z,4.38
2022-08-21T11:08:23.692Z,5.22
2022-08-21T11:11:53.882Z,4.60
2022-08-21T11:15:32.834Z,4.72
2022-08-21T11:18:54.962Z,3.50
2022-08-21T11:22:18.573Z,4.72
2022-08-21T11:25:36.485Z,5.13
2022-08-21T11:29:24.787Z,4.28
2022-08-21T11:32:25.447Z,5.20
2022-08-21T11:36:05.171Z,5.57
2022-08-21T11:39:22.424Z,4.53
2022-08-21T11:42:51.607Z,5.78
2022-08-21T11:46:01.069Z,5.95
2022-08-21T11:49:41.535Z,5.35
2022-08-21T11:53:02.996Z,5.65
2022-08-21T11:56:15.997Z,5.90
2022-08-21T11:59:31.190Z,4.70
2022-08-21T12:02:42.386Z,5.07
2022-08-21T12:05:55.979Z,5.00
2022-08-21T12:09:09.718Z,4.43
2022-08-21T12:12:35.178Z,4.43
2022-08-21T12:15:36.491Z,5.72
2022-08-21T12:18:39.185Z,5.18
2022-08-21T12:21:58.344Z,6.28
2022-08-21T12:25:21.548Z,6.80
2022-08-21T12:28:25.764Z,6.10
2022-08-21T12:31:29.728Z,6.13
2022-08-21T12:34:39.081Z,6.03
2022-08-21T12:37:57.901Z,5.20
2022-08-21T12:41:07.270Z,5.57
2022-08-21T12:44:22.483Z,5.35
2022-08-21T12:47:37.273Z,6.50
2022-08-21T12:50:52.565Z,6.20
2022-08-21T12:53:58.309Z,5.70
2022-08-21T12:57:02.838Z,6.00
2022-08-21T13:00:13.047Z,5.85
2022-08-21T13:03:17.196Z,6.35
2022-08-21T13:06:21.528Z,5.80
2022-08-21T13:09:30.807Z,5.40
2022-08-21T13:12:34.130Z,5.90
2022-08-21T13:15:39.062Z,6.28
2022-08-21T13:19:06.569Z,5.85
2022-08-21T13:22:34.220Z,6.13
2022-08-21T13:25:38.712Z,5.53
2022-08-21T13:28:40.532Z,5.25
2022-08-21T13:31:53.928Z,5.50
2022-08-21T13:34:54.910Z,5.80
2022-08-21T13:37:57.692Z,5.78
2022-08-21T13:41:22.746Z,6.05
2022-08-21T13:44:35.421Z,5.97
2022-08-21T13:47:36.754Z,5.32
2022-08-21T13:50:40.428Z,5.70
2022-08-21T13:53:45.831Z,5.25
2022-08-21T13:56:47.913Z,4.95
2022-08-21T13:59:50.440Z,4.88
2022-08-21T14:03:00.783Z,4.68
2022-08-21T14:06:03.026Z,5.93
2022-08-21T14:09:22.920Z,5.20
2022-08-21T14:12:38.319Z,5.57
2022-08-21T14:15:40.177Z,4.78
2022-08-21T14:19:11.875Z,4.65
2022-08-21T14:22:44.960Z,5.38
2022-08-21T14:25:47.051Z,4.45
2022-08-21T14:28:48.225Z,5.35
2022-08-21T14:31:59.369Z,5.38
2022-08-21T14:35:00.638Z,5.03
2022-08-21T14:38:02.078Z,5.07
2022-08-21T14:41:22.645Z,5.50
2022-08-21T14:44:26.569Z,5.38
2022-08-21T14:47:27.605Z,5.85
2022-08-21T14:50:28.897Z,4.88
2022-08-21T14:53:30.144Z,4.88
2022-08-21T14:56:31.980Z,4.60
2022-08-21T14:59:34.255Z,5.45
2022-08-21T15:02:35.175Z,5.13
2022-08-21T15:05:35.907Z,5.22
2022-08-21T15:08:36.744Z,5.15
2022-08-21T15:11:41.990Z,4.13
2022-08-21T15:14:44.643Z,5.07
2022-08-21T15:17:48.298Z,4.38
2022-08-21T15:20:50.800Z,5.68
2022-08-21T15:23:51.708Z,4.95
2022-08-21T15:26:56.050Z,4.65
2022-08-21T15:29:57.337Z,4.85
2022-08-21T15:32:59.000Z,5.13
2022-08-21T15:36:00.161Z,5.90
2022-08-21T15:39:01.008Z,5.80
2022-08-21T15:42:10.372Z,5.45
2022-08-21T15:45:14.311Z,5.35
2022-08-21T15:48:15.420Z,5.53
2022-08-21T15:51:18.189Z,5.57
2022-08-21T15:54:19.441Z,5.40
2022-08-21T15:57:25.449Z,4.55
2022-08-21T16:00:27.053Z,5.72
2022-08-21T16:03:29.204Z,5.45
2022-08-21T16:06:37.494Z,5.38
2022-08-21T16:09:46.268Z,4.97
2022-08-21T16:13:16.244Z,5.50
2022-08-21T16:16:23.535Z,4.95
2022-08-21T16:19:25.022Z,4.60
2022-08-21T16:22:26.065Z,5.88
2022-08-21T16:25:44.859Z,5.22
2022-08-21T16:28:51.678Z,5.20
2022-08-21T16:31:53.657Z,5.57
2022-08-21T16:34:55.182Z,5.95
2022-08-21T16:37:56.035Z,5.55
2022-08-21T16:40:57.864Z,5.57
2022-08-21T16:44:01.315Z,6.00
2022-08-21T16:47:02.795Z,4.50
2022-08-21T16:50:05.587Z,4.63
2022-08-21T16:53:07.278Z,4.57
2022-08-21T16:56:10.638Z,4.70
2022-08-21T16:59:13.090Z,5.30
2022-08-21T17:02:38.452Z,5.65
2022-08-21T17:05:39.531Z,4.63
2022-08-21T17:08:40.826Z,4.47
2022-08-21T17:11:46.492Z,5.00
2022-08-21T17:14:49.454Z,4.72
2022-08-21T17:17:51.923Z,4.32
2022-08-21T17:20:53.760Z,4.55
2022-08-21T17:23:54.582Z,5.20
2022-08-21T17:26:57.606Z,5.05
2022-08-21T17:29:58.716Z,4.93
2022-08-21T17:33:01.242Z,5.07
2022-08-21T17:36:03.376Z,4.43
2022-08-21T17:39:05.318Z,4.32
2022-08-21T17:42:13.748Z,5.00
2022-08-21T17:45:19.074Z,4.97
2022-08-21T17:48:20.139Z,4.57
2022-08-21T17:51:26.344Z,4.20
2022-08-21T17:54:28.489Z,4.40
2022-08-21T17:57:35.463Z,3.97
2022-08-21T18:00:36.931Z,3.92
2022-08-21T18:03:38.492Z,4.07
2022-08-21T18:06:40.270Z,3.42
2022-08-21T18:09:41.674Z,4.57
2022-08-21T18:12:45.563Z,3.85
2022-08-21T18:15:51.548Z,3.72
2022-08-21T18:18:52.210Z,3.22
2022-08-21T18:21:55.182Z,3.33
2022-08-21T18:24:56.365Z,3.00
2022-08-21T18:28:08.477Z,3.50
2022-08-21T18:31:13.007Z,2.90
2022-08-21T18:34:35.025Z,3.10
2022-08-21T18:37:36.998Z,2.97
2022-08-21T18:40:46.829Z,2.95
2022-08-21T18:43:48.264Z,3.60
2022-08-21T18:46:58.043Z,3.38
2022-08-21T18:49:59.170Z,3.30
2022-08-21T18:53:00.194Z,3.05
2022-08-21T18:56:05.360Z,3.15
2022-08-21T18:59:06.935Z,2.70
2022-08-21T19:02:08.612Z,3.47
2022-08-21T19:05:14.084Z,3.22
2022-08-21T19:08:20.649Z,3.40
2022-08-21T19:11:25.233Z,3.33
2022-08-21T19:14:26.886Z,3.00
2022-08-21T19:17:31.774Z,2.97
2022-08-21T19:20:37.018Z,3.35
2022-08-21T19:23:38.338Z,3.08
2022-08-21T19:26:43.860Z,3.40
2022-08-21T19:29:45.153Z,3.35
2022-08-21T19:32:48.054Z,3.05
2022-08-21T19:35:52.494Z,3.50
2022-08-21T19:38:53.877Z,2.88
2022-08-21T19:41:58.967Z,3.88
2022-08-21T19:45:00.888Z,3.00
2022-08-21T19:48:02.199Z,2.83
2022-08-21T19:51:05.311Z,2.92
2022-08-21T19:54:19.903Z,2.78
2022-08-21T19:57:20.781Z,3.40
2022-08-21T20:00:22.542Z,3.03
2022-08-21T20:03:25.376Z,3.08
2022-08-21T20:06:27.099Z,2.60
2022-08-21T20:09:28.262Z,2.78
2022-08-21T20:12:29.206Z,2.80
2022-08-21T20:15:30.827Z,2.50
2022-08-21T20:18:34.731Z,2.70
2022-08-21T20:21:44.380Z,2.78
2022-08-21T20:24:46.785Z,2.35
2022-08-21T20:27:48.035Z,2.20
2022-08-21T20:30:48.835Z,2.60
2022-08-21T20:33:51.907Z,2.47
2022-08-21T20:36:53.427Z,3.20
2022-08-21T20:39:54.616Z,3.10
2022-08-21T20:42:59.547Z,3.35
2022-08-21T20:46:01.330Z,2.72
2022-08-21T20:49:02.723Z,2.83
2022-08-21T20:52:05.646Z,2.60
2022-08-21T20:55:19.697Z,2.40
2022-08-21T20:58:38.791Z,2.40
2022-08-21T21:01:40.164Z,2.88
2022-08-21T21:05:01.363Z,3.28
2022-08-21T21:08:39.168Z,2.85
2022-08-21T21:11:58.494Z,3.03
2022-08-21T21:15:11.657Z,2.78
2022-08-21T21:18:22.688Z,2.65
2022-08-21T21:21:35.779Z,2.65
2022-08-21T21:24:52.383Z,2.60
2022-08-21T21:28:07.737Z,2.42
2022-08-21T21:31:14.614Z,2.80
2022-08-21T21:34:17.073Z,2.63
2022-08-21T21:37:39.445Z,2.20
2022-08-21T21:40:58.642Z,2.50
2022-08-21T21:44:15.566Z,2.58
2022-08-21T21:47:47.151Z,2.50
2022-08-21T21:51:02.034Z,2.78
2022-08-21T21:54:59.005Z,2.63
2022-08-21T21:58:06.379Z,2.40
2022-08-21T22:01:38.123Z,2.58
2022-08-21T22:05:29.112Z,2.35
2022-08-21T22:09:12.437Z,2.53
2022-08-21T22:12:53.919Z,2.45
2022-08-21T22:15:56.385Z,2.50
2022-08-21T22:19:20.605Z,2.63
2022-08-21T22:22:26.882Z,2.20
2022-08-21T22:25:41.830Z,2.72
2022-08-21T22:28:48.911Z,2.75
2022-08-21T22:32:08.415Z,2.70
2022-08-21T22:35:26.128Z,2.65
2022-08-21T22:38:27.601Z,2.92
2022-08-21T22:41:32.182Z,2.83
2022-08-21T22:48:22.591Z,3.22
2022-08-21T22:51:36.584Z,2.90
2022-08-21T22:54:45.194Z,2.88
2022-08-21T22:57:46.839Z,2.80
2022-08-21T23:01:21.874Z,2.80
2022-08-21T23:04:25.969Z,2.50
2022-08-21T23:07:43.751Z,2.72
2022-08-21T23:10:56.583Z,3.67
2022-08-21T23:13:57.542Z,2.90
2022-08-21T23:17:15.957Z,2.50
2022-08-21T23:20:56.080Z,2.80
2022-08-21T23:24:21.960Z,2.75
2022-08-21T23:31:22.754Z,2.40
2022-08-21T23:34:35.352Z,3.00
2022-08-21T23:38:15.791Z,2.65
2022-08-21T23:41:42.900Z,2.33
2022-08-21T23:49:05.806Z,2.97
2022-08-21T23:52:20.039Z,3.03
2022-08-21T23:55:41.454Z,2.70
2022-08-21T23:58:51.363Z,2.90
